sensor_id;sensor_type;location;lat;lon;timestamp;P1;durP1;ratioP1;P2;durP2;ratioP2
15218;SDS011;15623;53.986;11.676;2022-12-20T00:00:13;26.03;;;17.67;;
15218;SDS011;15623;53.986;11.676;2022-12-20T00:02:40;23.80;;;16.57;;
15218;SDS011;15623;53.986;11.676;2022-12-20T00:05:09;22.83;;;16.60;;
15218;SDS011;15623;53.986;11.676;2022-12-20T00:07:36;23.00;;;16.50;;
15218;SDS011;15623;53.986;11.676;2022-12-20T00:10:04;25.20;;;17.73;;
15218;SDS011;15623;53.986;11.676;2022-12-20T00:12:32;22.87;;;17.27;;
15218;SDS011;15623;53.986;11.676;2022-12-20T00:15:02;27.53;;;17.93;;
15218;SDS011;15623;53.986;11.676;2022-12-20T00:17:30;27.47;;;18.13;;
15218;SDS011;15623;53.986;11.676;2022-12-20T00:19:57;24.60;;;17.73;;
15218;SDS011;15623;53.986;11.676;2022-12-20T00:22:24;26.50;;;17.40;;
15218;SDS011;15623;53.986;11.676;2022-12-20T00:24:52;25.00;;;17.27;;
15218;SDS011;15623;53.986;11.676;2022-12-20T00:27:19;26.27;;;17.47;;
15218;SDS011;15623;53.986;11.676;2022-12-20T00:29:46;24.63;;;17.43;;
15218;SDS011;15623;53.986;11.676;2022-12-20T00:32:15;25.03;;;17.37;;
15218;SDS011;15623;53.986;11.676;2022-12-20T00:34:43;27.67;;;17.03;;
15218;SDS011;15623;53.986;11.676;2022-12-20T00:37:10;21.93;;;16.43;;
15218;SDS011;15623;53.986;11.676;2022-12-20T00:39:38;26.20;;;16.87;;
15218;SDS011;15623;53.986;11.676;2022-12-20T00:42:05;25.53;;;16.83;;
15218;SDS011;15623;53.986;11.676;2022-12-20T00:44:33;26.00;;;17.90;;
15218;SDS011;15623;53.986;11.676;2022-12-20T00:47:00;26.27;;;18.50;;
15218;SDS011;15623;53.986;11.676;2022-12-20T00:49:29;26.90;;;17.20;;
15218;SDS011;15623;53.986;11.676;2022-12-20T00:51:57;24.40;;;16.83;;
15218;SDS011;15623;53.986;11.676;2022-12-20T00:54:24;26.13;;;17.13;;
15218;SDS011;15623;53.986;11.676;2022-12-20T00:56:51;22.53;;;16.70;;
15218;SDS011;15623;53.986;11.676;2022-12-20T00:59:29;24.77;;;16.47;;
15218;SDS011;15623;53.986;11.676;2022-12-20T01:02:03;22.67;;;16.47;;
15218;SDS011;15623;53.986;11.676;2022-12-20T01:04:33;23.00;;;16.17;;
15218;SDS011;15623;53.986;11.676;2022-12-20T01:07:02;18.77;;;14.83;;
15218;SDS011;15623;53.986;11.676;2022-12-20T01:09:40;24.20;;;15.67;;
15218;SDS011;15623;53.986;11.676;2022-12-20T01:12:13;22.63;;;15.40;;
15218;SDS011;15623;53.986;11.676;2022-12-20T01:14:45;21.67;;;15.70;;
15218;SDS011;15623;53.986;11.676;2022-12-20T01:17:29;23.33;;;15.60;;
15218;SDS011;15623;53.986;11.676;2022-12-20T01:19:58;21.30;;;15.17;;
15218;SDS011;15623;53.986;11.676;2022-12-20T01:22:26;19.20;;;14.23;;
15218;SDS011;15623;53.986;11.676;2022-12-20T01:24:54;21.53;;;15.93;;
15218;SDS011;15623;53.986;11.676;2022-12-20T01:27:21;24.37;;;15.80;;
15218;SDS011;15623;53.986;11.676;2022-12-20T01:29:48;23.90;;;15.83;;
15218;SDS011;15623;53.986;11.676;2022-12-20T01:32:16;21.53;;;16.03;;
15218;SDS011;15623;53.986;11.676;2022-12-20T01:34:44;18.03;;;14.10;;
15218;SDS011;15623;53.986;11.676;2022-12-20T01:37:20;19.43;;;15.30;;
15218;SDS011;15623;53.986;11.676;2022-12-20T01:39:51;24.23;;;15.57;;
15218;SDS011;15623;53.986;11.676;2022-12-20T01:42:19;19.80;;;15.20;;
15218;SDS011;15623;53.986;11.676;2022-12-20T01:44:51;22.40;;;15.07;;
15218;SDS011;15623;53.986;11.676;2022-12-20T01:47:19;23.80;;;15.70;;
15218;SDS011;15623;53.986;11.676;2022-12-20T01:49:46;23.63;;;15.37;;
15218;SDS011;15623;53.986;11.676;2022-12-20T01:52:16;21.40;;;15.43;;
15218;SDS011;15623;53.986;11.676;2022-12-20T01:54:47;20.50;;;15.60;;
15218;SDS011;15623;53.986;11.676;2022-12-20T01:57:16;19.07;;;14.70;;
15218;SDS011;15623;53.986;11.676;2022-12-20T02:00:03;21.33;;;14.47;;
15218;SDS011;15623;53.986;11.676;2022-12-20T02:02:44;19.87;;;15.03;;
15218;SDS011;15623;53.986;11.676;2022-12-20T02:05:13;20.20;;;14.73;;
15218;SDS011;15623;53.986;11.676;2022-12-20T02:07:41;16.63;;;13.07;;
15218;SDS011;15623;53.986;11.676;2022-12-20T02:10:11;19.13;;;14.17;;
15218;SDS011;15623;53.986;11.676;2022-12-20T02:12:39;19.17;;;14.17;;
15218;SDS011;15623;53.986;11.676;2022-12-20T02:15:20;18.47;;;13.80;;
15218;SDS011;15623;53.986;11.676;2022-12-20T02:17:54;17.37;;;14.20;;
15218;SDS011;15623;53.986;11.676;2022-12-20T02:23:15;17.63;;;13.97;;
15218;SDS011;15623;53.986;11.676;2022-12-20T02:25:55;21.73;;;15.37;;
15218;SDS011;15623;53.986;11.676;2022-12-20T02:28:33;18.50;;;13.87;;
15218;SDS011;15623;53.986;11.676;2022-12-20T02:31:09;20.80;;;13.73;;
15218;SDS011;15623;53.986;11.676;2022-12-20T02:33:48;18.43;;;14.33;;
15218;SDS011;15623;53.986;11.676;2022-12-20T02:36:15;18.80;;;13.53;;
15218;SDS011;15623;53.986;11.676;2022-12-20T02:38:44;18.70;;;14.50;;
15218;SDS011;15623;53.986;11.676;2022-12-20T02:41:14;20.87;;;14.87;;
15218;SDS011;15623;53.986;11.676;2022-12-20T02:43:43;18.73;;;14.37;;
15218;SDS011;15623;53.986;11.676;2022-12-20T02:46:30;20.77;;;15.40;;
15218;SDS011;15623;53.986;11.676;2022-12-20T02:48:59;21.47;;;15.43;;
15218;SDS011;15623;53.986;11.676;2022-12-20T02:51:28;20.60;;;15.10;;
15218;SDS011;15623;53.986;11.676;2022-12-20T02:53:56;20.90;;;14.97;;
15218;SDS011;15623;53.986;11.676;2022-12-20T02:56:25;23.30;;;15.33;;
15218;SDS011;15623;53.986;11.676;2022-12-20T02:58:57;19.87;;;15.33;;
15218;SDS011;15623;53.986;11.676;2022-12-20T03:01:36;20.93;;;15.07;;
15218;SDS011;15623;53.986;11.676;2022-12-20T03:04:05;20.23;;;15.10;;
15218;SDS011;15623;53.986;11.676;2022-12-20T03:06:55;21.00;;;15.37;;
15218;SDS011;15623;53.986;11.676;2022-12-20T03:09:23;20.53;;;14.90;;
15218;SDS011;15623;53.986;11.676;2022-12-20T03:11:50;20.73;;;15.63;;
15218;SDS011;15623;53.986;11.676;2022-12-20T03:14:18;21.67;;;15.77;;
15218;SDS011;15623;53.986;11.676;2022-12-20T03:16:56;24.33;;;15.40;;
15218;SDS011;15623;53.986;11.676;2022-12-20T03:19:34;19.83;;;14.17;;
15218;SDS011;15623;53.986;11.676;2022-12-20T03:22:08;25.00;;;16.40;;
15218;SDS011;15623;53.986;11.676;2022-12-20T03:24:36;26.13;;;15.37;;
15218;SDS011;15623;53.986;11.676;2022-12-20T03:27:03;20.30;;;15.63;;
15218;SDS011;15623;53.986;11.676;2022-12-20T03:29:33;22.00;;;16.30;;
15218;SDS011;15623;53.986;11.676;2022-12-20T03:32:05;24.53;;;16.87;;
15218;SDS011;15623;53.986;11.676;2022-12-20T03:34:59;20.70;;;15.43;;
15218;SDS011;15623;53.986;11.676;2022-12-20T03:37:27;22.20;;;15.17;;
15218;SDS011;15623;53.986;11.676;2022-12-20T03:39:54;17.77;;;14.60;;
15218;SDS011;15623;53.986;11.676;2022-12-20T03:42:21;19.93;;;13.93;;
15218;SDS011;15623;53.986;11.676;2022-12-20T03:45:04;18.73;;;14.53;;
15218;SDS011;15623;53.986;11.676;2022-12-20T03:47:33;22.17;;;15.03;;
15218;SDS011;15623;53.986;11.676;2022-12-20T03:50:01;17.60;;;13.83;;
15218;SDS011;15623;53.986;11.676;2022-12-20T03:52:28;20.23;;;14.73;;
15218;SDS011;15623;53.986;11.676;2022-12-20T03:54:55;20.37;;;14.60;;
15218;SDS011;15623;53.986;11.676;2022-12-20T03:57:23;21.57;;;15.37;;
15218;SDS011;15623;53.986;11.676;2022-12-20T03:59:50;17.47;;;13.90;;
15218;SDS011;15623;53.986;11.676;2022-12-20T04:02:20;17.63;;;13.80;;
15218;SDS011;15623;53.986;11.676;2022-12-20T04:04:49;18.53;;;14.40;;
15218;SDS011;15623;53.986;11.676;2022-12-20T04:07:16;21.37;;;14.67;;
15218;SDS011;15623;53.986;11.676;2022-12-20T04:09:44;22.77;;;14.80;;
15218;SDS011;15623;53.986;11.676;2022-12-20T04:12:13;19.33;;;13.77;;
15218;SDS011;15623;53.986;11.676;2022-12-20T04:14:40;19.57;;;13.60;;
15218;SDS011;15623;53.986;11.676;2022-12-20T04:17:08;19.93;;;13.97;;
15218;SDS011;15623;53.986;11.676;2022-12-20T04:19:35;21.07;;;14.53;;
15218;SDS011;15623;53.986;11.676;2022-12-20T04:22:04;17.00;;;13.30;;
15218;SDS011;15623;53.986;11.676;2022-12-20T04:24:34;17.50;;;13.93;;
15218;SDS011;15623;53.986;11.676;2022-12-20T04:27:02;19.20;;;15.37;;
15218;SDS011;15623;53.986;11.676;2022-12-20T04:29:39;17.90;;;13.83;;
15218;SDS011;15623;53.986;11.676;2022-12-20T04:32:20;18.90;;;15.17;;
15218;SDS011;15623;53.986;11.676;2022-12-20T04:35:01;19.13;;;15.00;;
15218;SDS011;15623;53.986;11.676;2022-12-20T04:37:30;21.13;;;15.77;;
15218;SDS011;15623;53.986;11.676;2022-12-20T04:40:01;19.73;;;14.73;;
15218;SDS011;15623;53.986;11.676;2022-12-20T04:42:29;23.00;;;16.70;;
15218;SDS011;15623;53.986;11.676;2022-12-20T04:44:56;19.40;;;15.40;;
15218;SDS011;15623;53.986;11.676;2022-12-20T04:47:24;20.30;;;16.10;;
15218;SDS011;15623;53.986;11.676;2022-12-20T04:49:51;22.67;;;16.50;;
15218;SDS011;15623;53.986;11.676;2022-12-20T04:52:18;26.03;;;16.77;;
15218;SDS011;15623;53.986;11.676;2022-12-20T04:55:05;27.37;;;17.80;;
15218;SDS011;15623;53.986;11.676;2022-12-20T04:57:33;22.27;;;16.73;;
15218;SDS011;15623;53.986;11.676;2022-12-20T05:00:00;24.17;;;17.53;;
15218;SDS011;15623;53.986;11.676;2022-12-20T05:02:28;22.00;;;17.07;;
15218;SDS011;15623;53.986;11.676;2022-12-20T05:04:55;24.57;;;17.07;;
15218;SDS011;15623;53.986;11.676;2022-12-20T05:10:28;24.37;;;17.47;;
15218;SDS011;15623;53.986;11.676;2022-12-20T05:12:55;25.43;;;16.23;;
15218;SDS011;15623;53.986;11.676;2022-12-20T05:15:23;23.60;;;16.83;;
15218;SDS011;15623;53.986;11.676;2022-12-20T05:17:50;23.83;;;16.80;;
15218;SDS011;15623;53.986;11.676;2022-12-20T05:20:23;26.70;;;17.03;;
15218;SDS011;15623;53.986;11.676;2022-12-20T05:22:50;22.27;;;15.30;;
15218;SDS011;15623;53.986;11.676;2022-12-20T05:25:38;22.43;;;15.93;;
15218;SDS011;15623;53.986;11.676;2022-12-20T05:28:29;24.23;;;16.13;;
15218;SDS011;15623;53.986;11.676;2022-12-20T05:30:57;24.67;;;16.77;;
15218;SDS011;15623;53.986;11.676;2022-12-20T05:33:38;21.43;;;15.90;;
15218;SDS011;15623;53.986;11.676;2022-12-20T05:36:06;25.50;;;16.60;;
15218;SDS011;15623;53.986;11.676;2022-12-20T05:38:33;23.93;;;16.43;;
15218;SDS011;15623;53.986;11.676;2022-12-20T05:41:04;22.83;;;16.03;;
15218;SDS011;15623;53.986;11.676;2022-12-20T05:43:34;23.47;;;16.63;;
15218;SDS011;15623;53.986;11.676;2022-12-20T05:46:05;24.67;;;16.20;;
15218;SDS011;15623;53.986;11.676;2022-12-20T05:48:33;26.03;;;17.37;;
15218;SDS011;15623;53.986;11.676;2022-12-20T05:51:00;22.40;;;16.17;;
15218;SDS011;15623;53.986;11.676;2022-12-20T05:53:28;24.03;;;15.80;;
15218;SDS011;15623;53.986;11.676;2022-12-20T05:55:56;22.57;;;16.33;;
15218;SDS011;15623;53.986;11.676;2022-12-20T05:58:24;22.43;;;17.10;;
15218;SDS011;15623;53.986;11.676;2022-12-20T06:00:52;24.23;;;16.77;;
15218;SDS011;15623;53.986;11.676;2022-12-20T06:03:20;22.33;;;15.87;;
15218;SDS011;15623;53.986;11.676;2022-12-20T06:05:48;22.83;;;16.57;;
15218;SDS011;15623;53.986;11.676;2022-12-20T06:08:15;25.30;;;17.77;;
15218;SDS011;15623;53.986;11.676;2022-12-20T06:10:43;23.20;;;17.23;;
15218;SDS011;15623;53.986;11.676;2022-12-20T06:13:11;21.10;;;16.37;;
15218;SDS011;15623;53.986;11.676;2022-12-20T06:15:39;24.43;;;17.30;;
15218;SDS011;15623;53.986;11.676;2022-12-20T06:18:07;26.50;;;17.07;;
15218;SDS011;15623;53.986;11.676;2022-12-20T06:20:35;20.83;;;16.20;;
15218;SDS011;15623;53.986;11.676;2022-12-20T06:23:03;22.13;;;16.17;;
15218;SDS011;15623;53.986;11.676;2022-12-20T06:25:31;22.83;;;16.40;;
15218;SDS011;15623;53.986;11.676;2022-12-20T06:27:58;20.87;;;16.33;;
15218;SDS011;15623;53.986;11.676;2022-12-20T06:30:26;21.20;;;16.10;;
15218;SDS011;15623;53.986;11.676;2022-12-20T06:32:54;22.10;;;16.57;;
15218;SDS011;15623;53.986;11.676;2022-12-20T06:35:22;23.43;;;16.60;;
15218;SDS011;15623;53.986;11.676;2022-12-20T06:37:49;23.27;;;16.53;;
15218;SDS011;15623;53.986;11.676;2022-12-20T06:40:31;23.73;;;17.20;;
15218;SDS011;15623;53.986;11.676;2022-12-20T06:43:15;25.60;;;17.73;;
15218;SDS011;15623;53.986;11.676;2022-12-20T06:48:52;22.73;;;17.20;;
15218;SDS011;15623;53.986;11.676;2022-12-20T06:51:20;22.73;;;17.30;;
15218;SDS011;15623;53.986;11.676;2022-12-20T06:53:51;25.13;;;17.53;;
15218;SDS011;15623;53.986;11.676;2022-12-20T06:56:19;26.43;;;18.43;;
15218;SDS011;15623;53.986;11.676;2022-12-20T06:58:46;28.50;;;19.40;;
15218;SDS011;15623;53.986;11.676;2022-12-20T07:01:14;30.23;;;20.03;;
15218;SDS011;15623;53.986;11.676;2022-12-20T07:03:41;27.97;;;19.93;;
15218;SDS011;15623;53.986;11.676;2022-12-20T07:06:10;28.70;;;19.00;;
15218;SDS011;15623;53.986;11.676;2022-12-20T07:08:38;29.23;;;19.03;;
15218;SDS011;15623;53.986;11.676;2022-12-20T07:11:06;28.07;;;18.13;;
15218;SDS011;15623;53.986;11.676;2022-12-20T07:13:33;28.93;;;19.27;;
15218;SDS011;15623;53.986;11.676;2022-12-20T07:16:02;30.53;;;19.77;;
15218;SDS011;15623;53.986;11.676;2022-12-20T07:18:29;31.10;;;20.00;;
15218;SDS011;15623;53.986;11.676;2022-12-20T07:20:59;30.70;;;19.33;;
15218;SDS011;15623;53.986;11.676;2022-12-20T07:23:28;32.43;;;20.53;;
15218;SDS011;15623;53.986;11.676;2022-12-20T07:25:57;29.77;;;20.40;;
15218;SDS011;15623;53.986;11.676;2022-12-20T07:28:25;29.50;;;19.10;;
15218;SDS011;15623;53.986;11.676;2022-12-20T07:30:53;32.30;;;20.33;;
15218;SDS011;15623;53.986;11.676;2022-12-20T07:33:20;30.63;;;20.00;;
15218;SDS011;15623;53.986;11.676;2022-12-20T07:35:48;32.67;;;20.20;;
15218;SDS011;15623;53.986;11.676;2022-12-20T07:38:15;31.87;;;21.03;;
15218;SDS011;15623;53.986;11.676;2022-12-20T07:40:45;30.27;;;19.83;;
15218;SDS011;15623;53.986;11.676;2022-12-20T07:43:13;33.90;;;20.03;;
15218;SDS011;15623;53.986;11.676;2022-12-20T07:45:40;32.50;;;20.63;;
15218;SDS011;15623;53.986;11.676;2022-12-20T07:48:08;32.67;;;20.33;;
15218;SDS011;15623;53.986;11.676;2022-12-20T07:50:35;33.43;;;19.97;;
15218;SDS011;15623;53.986;11.676;2022-12-20T07:53:03;31.67;;;20.60;;
15218;SDS011;15623;53.986;11.676;2022-12-20T07:55:31;35.50;;;21.07;;
15218;SDS011;15623;53.986;11.676;2022-12-20T07:58:01;34.37;;;21.60;;
15218;SDS011;15623;53.986;11.676;2022-12-20T08:00:30;31.23;;;21.53;;
15218;SDS011;15623;53.986;11.676;2022-12-20T08:02:59;35.17;;;21.50;;
15218;SDS011;15623;53.986;11.676;2022-12-20T08:05:27;32.80;;;21.23;;
15218;SDS011;15623;53.986;11.676;2022-12-20T08:07:55;34.97;;;22.13;;
15218;SDS011;15623;53.986;11.676;2022-12-20T08:10:24;31.57;;;21.40;;
15218;SDS011;15623;53.986;11.676;2022-12-20T08:12:52;31.37;;;21.10;;
15218;SDS011;15623;53.986;11.676;2022-12-20T08:15:21;34.30;;;21.40;;
15218;SDS011;15623;53.986;11.676;2022-12-20T08:17:49;34.63;;;21.23;;
15218;SDS011;15623;53.986;11.676;2022-12-20T08:20:16;32.47;;;21.53;;
15218;SDS011;15623;53.986;11.676;2022-12-20T08:22:44;35.50;;;21.93;;
15218;SDS011;15623;53.986;11.676;2022-12-20T08:25:12;36.83;;;22.00;;
15218;SDS011;15623;53.986;11.676;2022-12-20T08:27:39;29.53;;;20.10;;
15218;SDS011;15623;53.986;11.676;2022-12-20T08:30:07;35.60;;;20.63;;
15218;SDS011;15623;53.986;11.676;2022-12-20T08:32:36;32.97;;;20.80;;
15218;SDS011;15623;53.986;11.676;2022-12-20T08:35:04;34.07;;;20.23;;
15218;SDS011;15623;53.986;11.676;2022-12-20T08:37:32;32.20;;;20.63;;
15218;SDS011;15623;53.986;11.676;2022-12-20T08:39:59;27.97;;;19.80;;
15218;SDS011;15623;53.986;11.676;2022-12-20T08:42:28;33.77;;;21.10;;
15218;SDS011;15623;53.986;11.676;2022-12-20T08:44:55;33.33;;;21.80;;
15218;SDS011;15623;53.986;11.676;2022-12-20T08:47:23;37.23;;;21.93;;
15218;SDS011;15623;53.986;11.676;2022-12-20T08:49:52;37.20;;;21.20;;
15218;SDS011;15623;53.986;11.676;2022-12-20T08:52:20;36.33;;;22.00;;
15218;SDS011;15623;53.986;11.676;2022-12-20T08:54:48;32.73;;;21.43;;
15218;SDS011;15623;53.986;11.676;2022-12-20T08:57:15;38.90;;;21.43;;
15218;SDS011;15623;53.986;11.676;2022-12-20T08:59:43;39.00;;;22.93;;
15218;SDS011;15623;53.986;11.676;2022-12-20T09:02:10;35.30;;;21.57;;
15218;SDS011;15623;53.986;11.676;2022-12-20T09:04:38;40.23;;;23.30;;
15218;SDS011;15623;53.986;11.676;2022-12-20T09:07:07;37.90;;;23.20;;
15218;SDS011;15623;53.986;11.676;2022-12-20T09:09:35;41.03;;;23.03;;
15218;SDS011;15623;53.986;11.676;2022-12-20T09:12:02;38.37;;;23.90;;
15218;SDS011;15623;53.986;11.676;2022-12-20T09:14:31;37.37;;;22.87;;
15218;SDS011;15623;53.986;11.676;2022-12-20T09:16:59;37.23;;;23.33;;
15218;SDS011;15623;53.986;11.676;2022-12-20T09:19:26;38.67;;;23.03;;
15218;SDS011;15623;53.986;11.676;2022-12-20T09:21:55;35.20;;;22.80;;
15218;SDS011;15623;53.986;11.676;2022-12-20T09:24:24;34.93;;;21.90;;
15218;SDS011;15623;53.986;11.676;2022-12-20T09:26:51;36.27;;;22.03;;
15218;SDS011;15623;53.986;11.676;2022-12-20T09:29:19;36.23;;;23.03;;
15218;SDS011;15623;53.986;11.676;2022-12-20T09:31:48;34.77;;;22.07;;
15218;SDS011;15623;53.986;11.676;2022-12-20T09:34:15;35.33;;;21.73;;
15218;SDS011;15623;53.986;11.676;2022-12-20T09:36:43;30.97;;;21.67;;
15218;SDS011;15623;53.986;11.676;2022-12-20T09:39:13;30.67;;;20.67;;
15218;SDS011;15623;53.986;11.676;2022-12-20T09:41:43;29.00;;;20.00;;
15218;SDS011;15623;53.986;11.676;2022-12-20T09:44:13;33.37;;;21.13;;
15218;SDS011;15623;53.986;11.676;2022-12-20T09:46:42;30.33;;;20.93;;
15218;SDS011;15623;53.986;11.676;2022-12-20T09:49:10;29.87;;;20.40;;
15218;SDS011;15623;53.986;11.676;2022-12-20T09:51:55;28.13;;;19.50;;
15218;SDS011;15623;53.986;11.676;2022-12-20T09:54:29;30.70;;;19.77;;
15218;SDS011;15623;53.986;11.676;2022-12-20T09:57:01;28.07;;;19.67;;
15218;SDS011;15623;53.986;11.676;2022-12-20T09:59:30;30.43;;;19.87;;
15218;SDS011;15623;53.986;11.676;2022-12-20T10:01:59;29.83;;;18.80;;
15218;SDS011;15623;53.986;11.676;2022-12-20T10:04:27;29.73;;;18.80;;
15218;SDS011;15623;53.986;11.676;2022-12-20T10:07:01;26.57;;;19.10;;
15218;SDS011;15623;53.986;11.676;2022-12-20T10:09:45;27.67;;;18.90;;
15218;SDS011;15623;53.986;11.676;2022-12-20T10:12:18;27.67;;;19.43;;
15218;SDS011;15623;53.986;11.676;2022-12-20T10:14:52;28.77;;;18.43;;
15218;SDS011;15623;53.986;11.676;2022-12-20T10:17:25;27.13;;;18.63;;
15218;SDS011;15623;53.986;11.676;2022-12-20T10:20:03;24.97;;;18.43;;
15218;SDS011;15623;53.986;11.676;2022-12-20T10:22:36;27.53;;;18.53;;
15218;SDS011;15623;53.986;11.676;2022-12-20T10:25:12;24.93;;;17.93;;
15218;SDS011;15623;53.986;11.676;2022-12-20T10:27:41;26.73;;;17.53;;
15218;SDS011;15623;53.986;11.676;2022-12-20T10:30:12;24.07;;;17.57;;
15218;SDS011;15623;53.986;11.676;2022-12-20T10:32:40;23.93;;;16.57;;
15218;SDS011;15623;53.986;11.676;2022-12-20T10:35:21;24.07;;;17.40;;
15218;SDS011;15623;53.986;11.676;2022-12-20T10:37:55;23.23;;;17.37;;
15218;SDS011;15623;53.986;11.676;2022-12-20T10:40:25;21.37;;;16.53;;
15218;SDS011;15623;53.986;11.676;2022-12-20T10:42:54;22.43;;;16.90;;
15218;SDS011;15623;53.986;11.676;2022-12-20T10:45:31;23.40;;;16.33;;
15218;SDS011;15623;53.986;11.676;2022-12-20T10:47:59;22.33;;;15.93;;
15218;SDS011;15623;53.986;11.676;2022-12-20T10:50:27;17.97;;;15.17;;
15218;SDS011;15623;53.986;11.676;2022-12-20T10:53:03;19.63;;;15.27;;
15218;SDS011;15623;53.986;11.676;2022-12-20T10:55:32;16.33;;;14.10;;
15218;SDS011;15623;53.986;11.676;2022-12-20T10:58:03;16.20;;;13.90;;
15218;SDS011;15623;53.986;11.676;2022-12-20T11:00:31;18.90;;;14.23;;
15218;SDS011;15623;53.986;11.676;2022-12-20T11:03:04;19.67;;;13.20;;
15218;SDS011;15623;53.986;11.676;2022-12-20T11:05:33;15.17;;;13.00;;
15218;SDS011;15623;53.986;11.676;2022-12-20T11:08:06;15.70;;;13.23;;
15218;SDS011;15623;53.986;11.676;2022-12-20T11:10:34;13.70;;;12.27;;
15218;SDS011;15623;53.986;11.676;2022-12-20T11:13:03;15.20;;;12.97;;
15218;SDS011;15623;53.986;11.676;2022-12-20T11:15:32;15.53;;;11.80;;
15218;SDS011;15623;53.986;11.676;2022-12-20T11:18:00;15.03;;;13.13;;
15218;SDS011;15623;53.986;11.676;2022-12-20T11:20:34;16.17;;;13.97;;
15218;SDS011;15623;53.986;11.676;2022-12-20T11:23:11;15.93;;;13.80;;
15218;SDS011;15623;53.986;11.676;2022-12-20T11:25:44;15.10;;;12.97;;
15218;SDS011;15623;53.986;11.676;2022-12-20T11:28:19;15.27;;;13.43;;
15218;SDS011;15623;53.986;11.676;2022-12-20T11:30:51;14.83;;;13.17;;
15218;SDS011;15623;53.986;11.676;2022-12-20T11:33:28;18.30;;;13.10;;
15218;SDS011;15623;53.986;11.676;2022-12-20T11:35:57;15.27;;;11.83;;
15218;SDS011;15623;53.986;11.676;2022-12-20T11:38:31;16.67;;;13.10;;
15218;SDS011;15623;53.986;11.676;2022-12-20T11:41:07;17.90;;;13.20;;
15218;SDS011;15623;53.986;11.676;2022-12-20T11:52:00;17.17;;;13.20;;
15218;SDS011;15623;53.986;11.676;2022-12-20T11:54:31;17.20;;;13.60;;
15218;SDS011;15623;53.986;11.676;2022-12-20T11:57:02;18.37;;;13.03;;
15218;SDS011;15623;53.986;11.676;2022-12-20T11:59:34;16.27;;;13.30;;
15218;SDS011;15623;53.986;11.676;2022-12-20T12:02:07;16.53;;;13.20;;
15218;SDS011;15623;53.986;11.676;2022-12-20T12:04:37;15.87;;;12.80;;
15218;SDS011;15623;53.986;11.676;2022-12-20T12:07:07;17.23;;;13.77;;
15218;SDS011;15623;53.986;11.676;2022-12-20T12:09:39;16.17;;;13.27;;
15218;SDS011;15623;53.986;11.676;2022-12-20T12:12:08;17.27;;;13.10;;
15218;SDS011;15623;53.986;11.676;2022-12-20T12:14:44;15.70;;;13.37;;
15218;SDS011;15623;53.986;11.676;2022-12-20T12:17:17;15.53;;;12.97;;
15218;SDS011;15623;53.986;11.676;2022-12-20T12:19:47;13.63;;;12.20;;
15218;SDS011;15623;53.986;11.676;2022-12-20T12:22:21;15.57;;;13.03;;
15218;SDS011;15623;53.986;11.676;2022-12-20T12:24:50;15.77;;;11.90;;
15218;SDS011;15623;53.986;11.676;2022-12-20T12:27:20;12.83;;;11.23;;
15218;SDS011;15623;53.986;11.676;2022-12-20T12:29:49;15.37;;;11.57;;
15218;SDS011;15623;53.986;11.676;2022-12-20T12:32:19;12.83;;;11.07;;
15218;SDS011;15623;53.986;11.676;2022-12-20T12:34:53;12.13;;;10.93;;
15218;SDS011;15623;53.986;11.676;2022-12-20T12:37:34;14.17;;;10.97;;
15218;SDS011;15623;53.986;11.676;2022-12-20T12:43:04;14.03;;;11.70;;
15218;SDS011;15623;53.986;11.676;2022-12-20T12:45:34;14.33;;;11.37;;
15218;SDS011;15623;53.986;11.676;2022-12-20T12:48:18;14.30;;;12.30;;
15218;SDS011;15623;53.986;11.676;2022-12-20T12:50:47;13.00;;;11.70;;
15218;SDS011;15623;53.986;11.676;2022-12-20T12:53:18;13.30;;;11.87;;
15218;SDS011;15623;53.986;11.676;2022-12-20T12:55:53;15.90;;;12.50;;
15218;SDS011;15623;53.986;11.676;2022-12-20T12:58:31;17.00;;;13.13;;
15218;SDS011;15623;53.986;11.676;2022-12-20T13:01:01;17.63;;;11.83;;
15218;SDS011;15623;53.986;11.676;2022-12-20T13:03:37;15.43;;;11.83;;
15218;SDS011;15623;53.986;11.676;2022-12-20T13:11:38;14.97;;;11.43;;
15218;SDS011;15623;53.986;11.676;2022-12-20T13:17:34;13.10;;;11.80;;
15218;SDS011;15623;53.986;11.676;2022-12-20T13:19:47;14.10;;;11.77;;
15218;SDS011;15623;53.986;11.676;2022-12-20T13:22:18;12.43;;;11.13;;
15218;SDS011;15623;53.986;11.676;2022-12-20T13:24:54;13.43;;;12.03;;
15218;SDS011;15623;53.986;11.676;2022-12-20T13:27:26;13.47;;;11.50;;
15218;SDS011;15623;53.986;11.676;2022-12-20T13:29:56;15.03;;;12.10;;
15218;SDS011;15623;53.986;11.676;2022-12-20T13:35:29;12.83;;;10.93;;
15218;SDS011;15623;53.986;11.676;2022-12-20T13:37:57;11.87;;;10.37;;
15218;SDS011;15623;53.986;11.676;2022-12-20T13:40:30;12.23;;;10.93;;
15218;SDS011;15623;53.986;11.676;2022-12-20T13:43:03;12.27;;;10.70;;
15218;SDS011;15623;53.986;11.676;2022-12-20T13:45:32;15.70;;;10.60;;
15218;SDS011;15623;53.986;11.676;2022-12-20T13:48:01;12.17;;;10.97;;
15218;SDS011;15623;53.986;11.676;2022-12-20T13:50:31;14.57;;;11.70;;
15218;SDS011;15623;53.986;11.676;2022-12-20T13:53:00;13.17;;;11.67;;
15218;SDS011;15623;53.986;11.676;2022-12-20T13:55:31;13.30;;;10.70;;
15218;SDS011;15623;53.986;11.676;2022-12-20T13:58:04;13.43;;;11.13;;
15218;SDS011;15623;53.986;11.676;2022-12-20T14:00:32;12.33;;;10.97;;
15218;SDS011;15623;53.986;11.676;2022-12-20T14:03:00;12.13;;;10.83;;
15218;SDS011;15623;53.986;11.676;2022-12-20T14:05:31;11.63;;;10.57;;
15218;SDS011;15623;53.986;11.676;2022-12-20T14:07:59;16.33;;;11.90;;
15218;SDS011;15623;53.986;11.676;2022-12-20T14:10:29;12.63;;;11.33;;
15218;SDS011;15623;53.986;11.676;2022-12-20T14:12:56;14.40;;;12.07;;
15218;SDS011;15623;53.986;11.676;2022-12-20T14:15:27;12.97;;;11.70;;
15218;SDS011;15623;53.986;11.676;2022-12-20T14:17:54;15.57;;;12.10;;
15218;SDS011;15623;53.986;11.676;2022-12-20T14:20:23;15.67;;;12.43;;
15218;SDS011;15623;53.986;11.676;2022-12-20T14:22:53;13.57;;;11.90;;
15218;SDS011;15623;53.986;11.676;2022-12-20T14:25:25;16.53;;;12.00;;
15218;SDS011;15623;53.986;11.676;2022-12-20T14:27:54;17.80;;;13.13;;
15218;SDS011;15623;53.986;11.676;2022-12-20T14:30:28;17.60;;;13.67;;
15218;SDS011;15623;53.986;11.676;2022-12-20T14:32:56;14.33;;;12.43;;
15218;SDS011;15623;53.986;11.676;2022-12-20T14:35:24;15.43;;;13.27;;
15218;SDS011;15623;53.986;11.676;2022-12-20T14:37:52;17.43;;;13.53;;
15218;SDS011;15623;53.986;11.676;2022-12-20T14:40:21;17.83;;;13.53;;
15218;SDS011;15623;53.986;11.676;2022-12-20T14:42:48;15.47;;;13.00;;
15218;SDS011;15623;53.986;11.676;2022-12-20T14:45:18;14.60;;;13.07;;
15218;SDS011;15623;53.986;11.676;2022-12-20T14:50:51;17.93;;;12.27;;
15218;SDS011;15623;53.986;11.676;2022-12-20T14:53:23;13.80;;;11.97;;
15218;SDS011;15623;53.986;11.676;2022-12-20T14:55:53;14.67;;;13.00;;
15218;SDS011;15623;53.986;11.676;2022-12-20T14:58:22;15.90;;;12.60;;
15218;SDS011;15623;53.986;11.676;2022-12-20T15:00:59;14.63;;;12.07;;